createdAt,value
2022-08-16T00:04:29.637Z,6.70
2022-08-16T00:09:33.260Z,6.30
2022-08-16T00:14:39.332Z,6.50
2022-08-16T00:19:42.642Z,6.60
2022-08-16T00:24:46.713Z,6.90
2022-08-16T00:30:00.735Z,6.60
2022-08-16T00:35:17.049Z,6.90
2022-08-16T00:40:36.515Z,7.60
2022-08-16T00:45:58.198Z,7.10
2022-08-16T00:51:05.450Z,6.70
2022-08-16T00:56:56.340Z,7.10
2022-08-16T01:01:38.731Z,7.00
2022-08-16T01:06:49.160Z,6.60
2022-08-16T01:12:10.782Z,6.60
2022-08-16T01:17:17.238Z,7.30
2022-08-16T01:22:48.318Z,7.40
2022-08-16T01:27:58.894Z,7.40
2022-08-16T01:33:14.194Z,7.60
2022-08-16T01:38:35.805Z,7.80
2022-08-16T01:43:42.886Z,7.30
2022-08-16T01:48:46.932Z,7.30
2022-08-16T01:53:54.529Z,7.40
2022-08-16T01:59:01.007Z,7.10
2022-08-16T02:04:11.014Z,6.90
2022-08-16T02:09:17.753Z,7.30
2022-08-16T02:14:26.389Z,7.30
2022-08-16T02:19:58.997Z,6.50
2022-08-16T02:24:56.294Z,6.70
2022-08-16T02:30:04.939Z,6.60
2022-08-16T02:35:10.148Z,6.70
2022-08-16T02:40:17.286Z,7.20
2022-08-16T02:45:27.743Z,7.20
2022-08-16T02:50:54.634Z,7.30
2022-08-16T02:55:55.172Z,6.90
2022-08-16T03:00:59.104Z,6.60
2022-08-16T03:06:03.227Z,7.00
2022-08-16T03:16:42.254Z,7.30
2022-08-16T03:22:03.030Z,7.40
2022-08-16T03:27:06.442Z,7.10
2022-08-16T03:37:17.468Z,6.10
2022-08-16T03:42:23.179Z,7.90
2022-08-16T03:47:28.086Z,7.10
2022-08-16T03:52:37.946Z,6.80
2022-08-16T03:57:52.342Z,7.40
2022-08-16T04:02:57.677Z,7.30
2022-08-16T04:08:01.091Z,7.40
2022-08-16T04:13:59.257Z,7.50
2022-08-16T04:18:49.951Z,7.70
2022-08-16T04:23:54.867Z,7.10
2022-08-16T04:29:17.034Z,7.90
2022-08-16T04:34:24.901Z,7.30
2022-08-16T04:39:44.875Z,6.80
2022-08-16T04:44:53.790Z,8.10
2022-08-16T04:49:58.835Z,7.10
2022-08-16T04:55:15.288Z,6.70
2022-08-16T05:00:32.830Z,6.00
2022-08-16T05:05:55.609Z,6.60
2022-08-16T05:11:06.011Z,7.00
2022-08-16T05:16:31.454Z,6.40
2022-08-16T05:21:38.491Z,6.40
2022-08-16T05:26:51.612Z,6.70
2022-08-16T05:31:55.212Z,6.70
2022-08-16T05:36:59.545Z,6.50
2022-08-16T05:42:04.803Z,6.20
2022-08-16T05:47:08.833Z,6.40
2022-08-16T05:52:20.885Z,6.20
2022-08-16T05:57:24.773Z,6.20
2022-08-16T06:02:33.464Z,6.70
2022-08-16T06:07:37.434Z,7.20
2022-08-16T06:12:41.871Z,6.70
2022-08-16T06:17:47.183Z,5.70
2022-08-16T06:23:02.798Z,5.90
2022-08-16T06:28:16.689Z,6.70
2022-08-16T06:33:41.231Z,6.60
2022-08-16T06:38:55.978Z,7.90
2022-08-16T06:44:00.210Z,6.30
2022-08-16T06:49:11.016Z,6.50
2022-08-16T06:54:14.537Z,6.40
2022-08-16T06:59:18.026Z,6.00
2022-08-16T07:04:31.882Z,6.30
2022-08-16T07:09:37.668Z,8.30
2022-08-16T07:14:41.475Z,7.10
2022-08-16T07:20:30.040Z,7.00
2022-08-16T07:30:39.715Z,7.50
2022-08-16T07:35:44.513Z,6.10
2022-08-16T07:46:05.853Z,5.20
2022-08-16T07:51:32.103Z,6.00
2022-08-16T07:56:37.280Z,6.00
2022-08-16T08:01:40.874Z,4.80
2022-08-16T08:06:46.334Z,5.50
2022-08-16T08:12:00.837Z,5.70
2022-08-16T08:17:08.497Z,4.90
2022-08-16T08:22:19.449Z,5.30
2022-08-16T08:27:26.313Z,6.00
2022-08-16T08:32:56.979Z,5.60
2022-08-16T08:37:55.653Z,5.50
2022-08-16T08:43:11.484Z,5.10
2022-08-16T08:48:33.545Z,5.90
2022-08-16T08:53:40.052Z,4.90
2022-08-16T08:58:54.669Z,4.90
2022-08-16T09:04:04.595Z,5.60
2022-08-16T09:09:09.903Z,5.20
2022-08-16T09:14:24.823Z,5.30
2022-08-16T09:19:32.179Z,5.50
2022-08-16T09:24:51.502Z,4.50
2022-08-16T09:29:59.754Z,4.30
2022-08-16T09:35:05.576Z,4.30
2022-08-16T09:40:32.249Z,4.30
2022-08-16T09:45:39.433Z,4.50
2022-08-16T09:50:45.103Z,5.00
2022-08-16T09:55:53.891Z,4.10
2022-08-16T10:01:00.930Z,3.80
2022-08-16T10:06:04.557Z,4.60
2022-08-16T10:11:26.603Z,4.00
2022-08-16T10:16:32.174Z,3.70
2022-08-16T10:21:35.580Z,3.40
2022-08-16T10:27:16.246Z,3.80
2022-08-16T10:32:03.545Z,3.40
2022-08-16T10:37:07.327Z,3.30
2022-08-16T10:42:13.397Z,3.50
2022-08-16T10:47:17.018Z,3.70
2022-08-16T10:52:20.952Z,3.80
2022-08-16T10:57:32.858Z,3.30
2022-08-16T11:02:57.834Z,3.80
2022-08-16T11:08:06.988Z,3.40
2022-08-16T11:13:57.509Z,3.00
2022-08-16T11:18:54.901Z,3.40
2022-08-16T11:24:01.810Z,3.90
2022-08-16T11:29:15.261Z,3.00
2022-08-16T11:34:19.802Z,3.60
2022-08-16T11:39:24.609Z,3.40
2022-08-16T11:44:52.265Z,3.40
2022-08-16T11:49:51.850Z,2.90
2022-08-16T11:55:00.008Z,3.20
2022-08-16T12:00:07.584Z,3.90
2022-08-16T12:05:31.478Z,2.90
2022-08-16T12:10:39.290Z,2.90
2022-08-16T12:15:43.629Z,3.00
2022-08-16T12:20:51.766Z,2.90
2022-08-16T12:25:58.754Z,3.40
2022-08-16T12:31:03.093Z,3.30
2022-08-16T12:36:09.934Z,3.30
2022-08-16T12:41:24.454Z,3.60
2022-08-16T12:46:29.197Z,3.10
2022-08-16T12:51:59.546Z,3.20
2022-08-16T12:57:01.830Z,2.90
2022-08-16T13:02:06.371Z,2.70
2022-08-16T13:07:16.642Z,2.90
2022-08-16T13:12:24.923Z,2.60
2022-08-16T13:17:29.683Z,2.90
2022-08-16T13:22:35.363Z,3.20
2022-08-16T13:28:02.280Z,3.10
2022-08-16T13:33:10.820Z,3.30
2022-08-16T13:38:21.581Z,3.20
2022-08-16T13:43:32.534Z,3.40
2022-08-16T13:48:44.490Z,3.20
2022-08-16T13:53:59.791Z,3.70
2022-08-16T13:59:14.439Z,3.90
2022-08-16T14:04:28.910Z,3.50
2022-08-16T14:09:34.667Z,3.30
2022-08-16T14:14:38.093Z,3.40
2022-08-16T14:19:45.098Z,2.90
2022-08-16T14:24:51.630Z,2.90
2022-08-16T14:29:56.525Z,2.50
2022-08-16T14:35:01.736Z,3.10
2022-08-16T14:40:08.539Z,3.40
2022-08-16T14:45:15.774Z,4.70
2022-08-16T14:50:24.154Z,7.20
2022-08-16T14:55:31.896Z,11.40
2022-08-16T15:00:36.686Z,18.30
2022-08-16T15:05:42.234Z,11.80
2022-08-16T15:10:45.902Z,7.50
2022-08-16T15:15:58.779Z,7.70
2022-08-16T15:21:05.170Z,7.10
2022-08-16T15:26:18.778Z,7.10
2022-08-16T15:31:35.752Z,9.70
2022-08-16T15:36:41.420Z,8.70
2022-08-16T15:41:46.826Z,8.80
2022-08-16T15:46:55.359Z,8.50
2022-08-16T15:52:01.492Z,4.60
2022-08-16T15:57:11.432Z,3.10
2022-08-16T16:02:16.295Z,2.50
2022-08-16T16:07:30.230Z,3.50
2022-08-16T16:12:52.943Z,2.50
2022-08-16T16:17:58.189Z,2.90
2022-08-16T16:23:10.400Z,3.10
2022-08-16T16:29:05.926Z,3.00
2022-08-16T16:33:50.395Z,3.30
2022-08-16T16:43:58.564Z,3.20
2022-08-16T16:49:06.995Z,3.00
2022-08-16T16:54:12.858Z,3.50
2022-08-16T16:59:17.409Z,3.80
2022-08-16T17:04:31.443Z,4.40
2022-08-16T17:09:40.159Z,3.60
2022-08-16T17:14:44.444Z,3.40
2022-08-16T17:19:49.495Z,3.70
2022-08-16T17:24:53.724Z,3.20
2022-08-16T17:29:58.375Z,3.50
2022-08-16T17:35:09.069Z,3.60
2022-08-16T17:40:26.904Z,4.30
2022-08-16T17:45:42.773Z,3.90
2022-08-16T17:50:47.556Z,3.90
2022-08-16T17:56:54.966Z,5.10
2022-08-16T18:01:59.165Z,5.30
2022-08-16T18:07:05.584Z,5.10
2022-08-16T18:12:50.943Z,6.70
2022-08-16T18:17:44.086Z,4.90
2022-08-16T18:22:48.226Z,4.00
2022-08-16T18:27:51.799Z,4.00
2022-08-16T18:32:56.646Z,4.10
2022-08-16T18:38:00.126Z,4.40
2022-08-16T18:43:06.650Z,4.00
2022-08-16T18:48:11.553Z,4.50
2022-08-16T18:53:18.413Z,5.90
2022-08-16T18:58:22.212Z,5.90
2022-08-16T19:03:31.872Z,5.30
2022-08-16T19:08:36.116Z,4.90
2022-08-16T19:13:40.848Z,6.20
2022-08-16T19:18:44.264Z,4.90
2022-08-16T19:23:47.779Z,5.50
2022-08-16T19:28:58.301Z,5.70
2022-08-16T19:34:04.623Z,6.40
2022-08-16T19:39:09.757Z,5.40
2022-08-16T19:44:14.132Z,10.60
2022-08-16T19:49:17.755Z,6.90
2022-08-16T19:54:21.112Z,11.50
2022-08-16T19:59:39.553Z,13.10
2022-08-16T20:04:44.269Z,10.60
2022-08-16T20:09:48.953Z,10.70
2022-08-16T20:14:53.557Z,8.90
2022-08-16T20:19:56.867Z,7.80
2022-08-16T20:25:02.702Z,8.10
2022-08-16T20:30:08.320Z,7.50
2022-08-16T20:35:13.954Z,5.90
2022-08-16T20:40:34.850Z,6.40
2022-08-16T20:45:40.360Z,6.00
2022-08-16T20:50:44.482Z,6.90
2022-08-16T20:55:48.098Z,6.80
2022-08-16T21:00:51.484Z,5.00
2022-08-16T21:05:59.024Z,5.70
2022-08-16T21:11:05.051Z,5.90
2022-08-16T21:16:08.409Z,5.50
2022-08-16T21:26:15.969Z,5.50
2022-08-16T21:31:19.265Z,5.10
2022-08-16T21:41:39.608Z,6.00
2022-08-16T21:46:42.918Z,5.60
2022-08-16T21:56:49.643Z,4.80
2022-08-16T22:01:53.237Z,5.20
2022-08-16T22:07:03.226Z,5.10
2022-08-16T22:12:07.663Z,5.80
2022-08-16T22:17:10.977Z,5.60
2022-08-16T22:27:17.904Z,6.20
2022-08-16T22:32:22.039Z,5.60
2022-08-16T22:37:25.347Z,6.10
2022-08-16T22:47:33.816Z,6.00
2022-08-16T22:58:00.502Z,6.30
2022-08-16T23:03:18.254Z,6.10
2022-08-16T23:08:33.647Z,6.10
2022-08-16T23:13:52.956Z,6.80
2022-08-16T23:18:58.036Z,6.50
2022-08-16T23:24:02.318Z,6.90
2022-08-16T23:29:06.449Z,7.00
2022-08-16T23:34:19.283Z,6.00
2022-08-16T23:39:22.901Z,7.10
2022-08-16T23:44:58.533Z,7.20
2022-08-16T23:50:01.990Z,7.00
2022-08-16T23:55:07.444Z,6.90
